Portada
METAR-TAF:

METAR-TAF

Aeroports :

Tòquio Heliport, Japó

latitud: 35-38N, longitud: 139-51E, altitud: 5 m

Observació

L'informe es va fer fa 6 hores i 9 minuts, a les 07:00 UTC
Vent 9 kt del Sud
Temperatura 21°C
Humitat 69%
Pressió 1017 hPa
Visibilitat 10 km o més
Escasses núvols a una alçada de 2000 ft
Núvols disperses a una alçada de 3500 ft
Cel ennuvolat a una alçada de 10000 ft
xàfecs de pluja

METAR: RJTI 310700Z 19009KT 9999 -SHRA FEW020 SCT035 BKN100 21/15 Q1017

Hora: 22:09 (13:09 UTC)


TAF: manca

Observacions i pronòstics meteorològics de més de 4000 aeroports (METAR i TAF).

Les estacions disponibles són els punts grocs i vermells al mapa.

Posi el ratolí al punt desitjat per veure el nom de l'estació.

Feu clic per veure les observacions i els pronòstics meteorològics.

Per canviar el mapa: feu clic els botons verds amb una creu de color negre per apropar; al botó verd amb un guió per allunyar la imatge; o en les fletxes verdes per a mapes adjacents.


METAR-TAF: